sensor_id;sensor_type;location;lat;lon;timestamp;P1;durP1;ratioP1;P2;durP2;ratioP2
58553;SDS011;48119;53.218;6.576;2024-03-02T00:01:04;3.97;;;2.38;;
58553;SDS011;48119;53.218;6.576;2024-03-02T00:03:30;4.13;;;2.88;;
58553;SDS011;48119;53.218;6.576;2024-03-02T00:05:55;4.60;;;3.13;;
58553;SDS011;48119;53.218;6.576;2024-03-02T00:08:24;4.13;;;2.40;;
58553;SDS011;48119;53.218;6.576;2024-03-02T00:10:51;3.30;;;2.10;;
58553;SDS011;48119;53.218;6.576;2024-03-02T00:13:18;2.67;;;2.15;;
58553;SDS011;48119;53.218;6.576;2024-03-02T00:15:48;4.20;;;2.55;;
58553;SDS011;48119;53.218;6.576;2024-03-02T00:18:38;4.63;;;2.47;;
58553;SDS011;48119;53.218;6.576;2024-03-02T00:21:03;4.78;;;2.72;;
58553;SDS011;48119;53.218;6.576;2024-03-02T00:23:30;4.22;;;2.53;;
58553;SDS011;48119;53.218;6.576;2024-03-02T00:25:57;5.18;;;3.00;;
58553;SDS011;48119;53.218;6.576;2024-03-02T00:28:30;3.55;;;2.63;;
58553;SDS011;48119;53.218;6.576;2024-03-02T00:31:07;3.25;;;2.25;;
58553;SDS011;48119;53.218;6.576;2024-03-02T00:33:37;4.28;;;2.55;;
58553;SDS011;48119;53.218;6.576;2024-03-02T00:36:07;5.15;;;3.13;;
58553;SDS011;48119;53.218;6.576;2024-03-02T00:38:34;4.18;;;2.70;;
58553;SDS011;48119;53.218;6.576;2024-03-02T00:41:05;4.57;;;2.55;;
58553;SDS011;48119;53.218;6.576;2024-03-02T00:46:33;3.05;;;2.47;;
58553;SDS011;48119;53.218;6.576;2024-03-02T00:49:00;4.70;;;2.72;;
58553;SDS011;48119;53.218;6.576;2024-03-02T00:51:29;4.18;;;2.60;;
58553;SDS011;48119;53.218;6.576;2024-03-02T00:53:58;6.55;;;2.35;;
58553;SDS011;48119;53.218;6.576;2024-03-02T00:56:25;3.13;;;2.28;;
58553;SDS011;48119;53.218;6.576;2024-03-02T00:58:51;3.60;;;2.50;;
58553;SDS011;48119;53.218;6.576;2024-03-02T01:01:17;3.35;;;2.47;;
58553;SDS011;48119;53.218;6.576;2024-03-02T01:03:45;5.68;;;2.35;;
58553;SDS011;48119;53.218;6.576;2024-03-02T01:06:11;6.28;;;3.17;;
58553;SDS011;48119;53.218;6.576;2024-03-02T01:08:37;5.65;;;3.28;;
58553;SDS011;48119;53.218;6.576;2024-03-02T01:11:03;4.72;;;2.20;;
58553;SDS011;48119;53.218;6.576;2024-03-02T01:13:30;5.13;;;3.00;;
58553;SDS011;48119;53.218;6.576;2024-03-02T01:15:56;3.72;;;2.80;;
58553;SDS011;48119;53.218;6.576;2024-03-02T01:18:23;3.80;;;2.40;;
58553;SDS011;48119;53.218;6.576;2024-03-02T01:20:49;5.60;;;2.60;;
58553;SDS011;48119;53.218;6.576;2024-03-02T01:23:20;6.70;;;2.75;;
58553;SDS011;48119;53.218;6.576;2024-03-02T01:25:46;4.43;;;2.50;;
58553;SDS011;48119;53.218;6.576;2024-03-02T01:28:13;4.15;;;2.88;;
58553;SDS011;48119;53.218;6.576;2024-03-02T01:30:39;4.85;;;2.80;;
58553;SDS011;48119;53.218;6.576;2024-03-02T01:33:05;3.13;;;2.53;;
58553;SDS011;48119;53.218;6.576;2024-03-02T01:35:31;4.45;;;2.95;;
58553;SDS011;48119;53.218;6.576;2024-03-02T01:37:57;5.20;;;2.83;;
58553;SDS011;48119;53.218;6.576;2024-03-02T01:40:23;3.53;;;2.45;;
58553;SDS011;48119;53.218;6.576;2024-03-02T01:42:55;4.68;;;3.03;;
58553;SDS011;48119;53.218;6.576;2024-03-02T01:45:23;3.53;;;2.67;;
58553;SDS011;48119;53.218;6.576;2024-03-02T01:47:49;4.60;;;2.80;;
58553;SDS011;48119;53.218;6.576;2024-03-02T01:50:15;5.38;;;2.75;;
58553;SDS011;48119;53.218;6.576;2024-03-02T01:52:49;4.72;;;3.00;;
58553;SDS011;48119;53.218;6.576;2024-03-02T01:55:15;6.53;;;3.30;;
58553;SDS011;48119;53.218;6.576;2024-03-02T01:57:40;4.90;;;2.67;;
58553;SDS011;48119;53.218;6.576;2024-03-02T02:00:06;6.85;;;3.47;;
58553;SDS011;48119;53.218;6.576;2024-03-02T02:02:32;4.20;;;2.80;;
58553;SDS011;48119;53.218;6.576;2024-03-02T02:04:58;4.40;;;2.92;;
58553;SDS011;48119;53.218;6.576;2024-03-02T02:07:24;4.80;;;3.03;;
58553;SDS011;48119;53.218;6.576;2024-03-02T02:09:50;5.07;;;2.95;;
58553;SDS011;48119;53.218;6.576;2024-03-02T02:12:16;4.28;;;2.40;;
58553;SDS011;48119;53.218;6.576;2024-03-02T02:14:48;6.07;;;2.95;;
58553;SDS011;48119;53.218;6.576;2024-03-02T02:17:15;4.13;;;2.80;;
58553;SDS011;48119;53.218;6.576;2024-03-02T02:19:41;4.88;;;3.40;;
58553;SDS011;48119;53.218;6.576;2024-03-02T02:22:08;3.90;;;2.80;;
58553;SDS011;48119;53.218;6.576;2024-03-02T02:24:39;5.28;;;2.85;;
58553;SDS011;48119;53.218;6.576;2024-03-02T02:27:08;4.25;;;2.78;;
58553;SDS011;48119;53.218;6.576;2024-03-02T02:29:35;4.47;;;2.78;;
58553;SDS011;48119;53.218;6.576;2024-03-02T02:32:01;5.03;;;2.90;;
58553;SDS011;48119;53.218;6.576;2024-03-02T02:34:27;4.25;;;2.40;;
58553;SDS011;48119;53.218;6.576;2024-03-02T02:36:53;4.18;;;2.70;;
58553;SDS011;48119;53.218;6.576;2024-03-02T02:39:20;4.50;;;2.90;;
58553;SDS011;48119;53.218;6.576;2024-03-02T02:41:47;4.78;;;3.03;;
58553;SDS011;48119;53.218;6.576;2024-03-02T02:44:13;4.40;;;3.20;;
58553;SDS011;48119;53.218;6.576;2024-03-02T02:46:39;3.97;;;2.75;;
58553;SDS011;48119;53.218;6.576;2024-03-02T02:49:06;4.05;;;2.60;;
58553;SDS011;48119;53.218;6.576;2024-03-02T02:51:31;3.50;;;2.17;;
58553;SDS011;48119;53.218;6.576;2024-03-02T02:53:57;4.07;;;2.65;;
58553;SDS011;48119;53.218;6.576;2024-03-02T02:56:23;4.53;;;2.60;;
58553;SDS011;48119;53.218;6.576;2024-03-02T02:58:49;4.10;;;2.60;;
58553;SDS011;48119;53.218;6.576;2024-03-02T03:01:15;3.92;;;2.20;;
58553;SDS011;48119;53.218;6.576;2024-03-02T03:03:44;4.50;;;2.30;;
58553;SDS011;48119;53.218;6.576;2024-03-02T03:06:10;4.40;;;2.53;;
58553;SDS011;48119;53.218;6.576;2024-03-02T03:08:37;3.22;;;2.30;;
58553;SDS011;48119;53.218;6.576;2024-03-02T03:11:03;3.08;;;1.88;;
58553;SDS011;48119;53.218;6.576;2024-03-02T03:13:30;2.40;;;1.80;;
58553;SDS011;48119;53.218;6.576;2024-03-02T03:15:57;3.03;;;1.85;;
58553;SDS011;48119;53.218;6.576;2024-03-02T03:18:23;4.50;;;1.90;;
58553;SDS011;48119;53.218;6.576;2024-03-02T03:20:48;2.05;;;1.55;;
58553;SDS011;48119;53.218;6.576;2024-03-02T03:23:15;3.13;;;1.80;;
58553;SDS011;48119;53.218;6.576;2024-03-02T03:25:42;3.15;;;2.08;;
58553;SDS011;48119;53.218;6.576;2024-03-02T03:28:08;2.60;;;1.75;;
58553;SDS011;48119;53.218;6.576;2024-03-02T03:30:38;5.03;;;1.95;;
58553;SDS011;48119;53.218;6.576;2024-03-02T03:33:05;2.85;;;1.75;;
58553;SDS011;48119;53.218;6.576;2024-03-02T03:35:31;2.80;;;1.75;;
58553;SDS011;48119;53.218;6.576;2024-03-02T03:37:57;2.55;;;1.40;;
58553;SDS011;48119;53.218;6.576;2024-03-02T03:40:23;3.28;;;1.73;;
58553;SDS011;48119;53.218;6.576;2024-03-02T03:42:49;2.55;;;1.77;;
58553;SDS011;48119;53.218;6.576;2024-03-02T03:45:15;2.88;;;1.77;;
58553;SDS011;48119;53.218;6.576;2024-03-02T03:47:41;3.33;;;1.83;;
58553;SDS011;48119;53.218;6.576;2024-03-02T03:50:07;3.58;;;1.85;;
58553;SDS011;48119;53.218;6.576;2024-03-02T03:52:33;2.92;;;1.55;;
58553;SDS011;48119;53.218;6.576;2024-03-02T03:54:59;2.85;;;1.95;;
58553;SDS011;48119;53.218;6.576;2024-03-02T03:57:26;3.10;;;1.85;;
58553;SDS011;48119;53.218;6.576;2024-03-02T03:59:52;3.00;;;1.90;;
58553;SDS011;48119;53.218;6.576;2024-03-02T04:02:18;3.45;;;1.88;;
58553;SDS011;48119;53.218;6.576;2024-03-02T04:04:44;3.42;;;1.80;;
58553;SDS011;48119;53.218;6.576;2024-03-02T04:07:11;2.35;;;1.50;;
58553;SDS011;48119;53.218;6.576;2024-03-02T04:09:43;2.65;;;1.38;;
58553;SDS011;48119;53.218;6.576;2024-03-02T04:12:09;3.90;;;1.90;;
58553;SDS011;48119;53.218;6.576;2024-03-02T04:14:35;4.10;;;1.95;;
58553;SDS011;48119;53.218;6.576;2024-03-02T04:17:00;3.40;;;1.92;;
58553;SDS011;48119;53.218;6.576;2024-03-02T04:19:27;3.35;;;1.58;;
58553;SDS011;48119;53.218;6.576;2024-03-02T04:21:52;5.40;;;1.75;;
58553;SDS011;48119;53.218;6.576;2024-03-02T04:24:18;2.45;;;1.75;;
58553;SDS011;48119;53.218;6.576;2024-03-02T04:26:44;2.88;;;1.85;;
58553;SDS011;48119;53.218;6.576;2024-03-02T04:29:10;3.03;;;1.70;;
58553;SDS011;48119;53.218;6.576;2024-03-02T04:31:35;7.30;;;1.75;;
58553;SDS011;48119;53.218;6.576;2024-03-02T04:34:01;4.15;;;2.25;;
58553;SDS011;48119;53.218;6.576;2024-03-02T04:36:27;2.67;;;1.75;;
58553;SDS011;48119;53.218;6.576;2024-03-02T04:38:53;3.42;;;2.13;;
58553;SDS011;48119;53.218;6.576;2024-03-02T04:41:18;3.35;;;1.73;;
58553;SDS011;48119;53.218;6.576;2024-03-02T04:43:44;4.57;;;1.60;;
58553;SDS011;48119;53.218;6.576;2024-03-02T04:46:10;3.10;;;1.70;;
58553;SDS011;48119;53.218;6.576;2024-03-02T04:48:36;2.53;;;1.52;;
58553;SDS011;48119;53.218;6.576;2024-03-02T04:51:01;2.95;;;1.60;;
58553;SDS011;48119;53.218;6.576;2024-03-02T04:53:27;2.72;;;1.77;;
58553;SDS011;48119;53.218;6.576;2024-03-02T04:55:53;4.10;;;2.47;;
58553;SDS011;48119;53.218;6.576;2024-03-02T04:58:19;3.67;;;2.13;;
58553;SDS011;48119;53.218;6.576;2024-03-02T05:00:44;2.65;;;1.45;;
58553;SDS011;48119;53.218;6.576;2024-03-02T05:03:11;3.95;;;1.63;;
58553;SDS011;48119;53.218;6.576;2024-03-02T05:05:38;3.33;;;1.90;;
58553;SDS011;48119;53.218;6.576;2024-03-02T05:08:04;3.33;;;1.92;;
58553;SDS011;48119;53.218;6.576;2024-03-02T05:10:30;3.42;;;2.17;;
58553;SDS011;48119;53.218;6.576;2024-03-02T05:12:59;3.45;;;1.67;;
58553;SDS011;48119;53.218;6.576;2024-03-02T05:15:25;3.47;;;1.83;;
58553;SDS011;48119;53.218;6.576;2024-03-02T05:17:51;4.63;;;1.98;;
58553;SDS011;48119;53.218;6.576;2024-03-02T05:20:17;3.72;;;2.05;;
58553;SDS011;48119;53.218;6.576;2024-03-02T05:22:43;3.45;;;1.95;;
58553;SDS011;48119;53.218;6.576;2024-03-02T05:25:08;3.45;;;1.88;;
58553;SDS011;48119;53.218;6.576;2024-03-02T05:27:37;2.50;;;1.60;;
58553;SDS011;48119;53.218;6.576;2024-03-02T05:30:03;3.42;;;1.98;;
58553;SDS011;48119;53.218;6.576;2024-03-02T05:32:31;3.78;;;1.95;;
58553;SDS011;48119;53.218;6.576;2024-03-02T05:34:57;2.75;;;1.73;;
58553;SDS011;48119;53.218;6.576;2024-03-02T05:37:23;2.40;;;1.60;;
58553;SDS011;48119;53.218;6.576;2024-03-02T05:39:48;4.97;;;1.67;;
58553;SDS011;48119;53.218;6.576;2024-03-02T05:42:14;3.35;;;1.90;;
58553;SDS011;48119;53.218;6.576;2024-03-02T05:44:41;2.75;;;1.77;;
58553;SDS011;48119;53.218;6.576;2024-03-02T05:47:07;3.15;;;1.80;;
58553;SDS011;48119;53.218;6.576;2024-03-02T05:49:34;3.45;;;1.80;;
58553;SDS011;48119;53.218;6.576;2024-03-02T05:52:00;3.63;;;2.03;;
58553;SDS011;48119;53.218;6.576;2024-03-02T05:54:26;2.28;;;1.60;;
58553;SDS011;48119;53.218;6.576;2024-03-02T05:56:52;3.97;;;1.90;;
58553;SDS011;48119;53.218;6.576;2024-03-02T05:59:17;4.72;;;2.10;;
58553;SDS011;48119;53.218;6.576;2024-03-02T06:01:43;3.88;;;1.75;;
58553;SDS011;48119;53.218;6.576;2024-03-02T06:04:12;3.05;;;2.03;;
58553;SDS011;48119;53.218;6.576;2024-03-02T06:06:38;4.10;;;1.98;;
58553;SDS011;48119;53.218;6.576;2024-03-02T06:09:04;5.10;;;2.28;;
58553;SDS011;48119;53.218;6.576;2024-03-02T06:11:33;3.28;;;2.10;;
58553;SDS011;48119;53.218;6.576;2024-03-02T06:13:59;5.88;;;2.60;;
58553;SDS011;48119;53.218;6.576;2024-03-02T06:16:25;4.25;;;2.38;;
58553;SDS011;48119;53.218;6.576;2024-03-02T06:18:50;2.88;;;1.65;;
58553;SDS011;48119;53.218;6.576;2024-03-02T06:21:16;5.28;;;2.47;;
58553;SDS011;48119;53.218;6.576;2024-03-02T06:23:43;4.13;;;1.83;;
58553;SDS011;48119;53.218;6.576;2024-03-02T06:26:09;3.17;;;1.85;;
58553;SDS011;48119;53.218;6.576;2024-03-02T06:28:35;4.18;;;1.90;;
58553;SDS011;48119;53.218;6.576;2024-03-02T06:31:01;3.05;;;1.70;;
58553;SDS011;48119;53.218;6.576;2024-03-02T06:33:27;3.42;;;2.00;;
58553;SDS011;48119;53.218;6.576;2024-03-02T06:35:53;2.00;;;1.65;;
58553;SDS011;48119;53.218;6.576;2024-03-02T06:38:19;3.92;;;2.20;;
58553;SDS011;48119;53.218;6.576;2024-03-02T06:40:45;3.83;;;2.25;;
58553;SDS011;48119;53.218;6.576;2024-03-02T06:43:11;3.53;;;2.20;;
58553;SDS011;48119;53.218;6.576;2024-03-02T06:45:37;3.97;;;1.92;;
58553;SDS011;48119;53.218;6.576;2024-03-02T06:48:03;2.90;;;1.92;;
58553;SDS011;48119;53.218;6.576;2024-03-02T06:50:28;3.38;;;1.73;;
58553;SDS011;48119;53.218;6.576;2024-03-02T06:52:54;2.95;;;1.98;;
58553;SDS011;48119;53.218;6.576;2024-03-02T06:55:23;3.03;;;2.08;;
58553;SDS011;48119;53.218;6.576;2024-03-02T06:57:52;2.78;;;2.10;;
58553;SDS011;48119;53.218;6.576;2024-03-02T07:00:18;3.85;;;1.95;;
58553;SDS011;48119;53.218;6.576;2024-03-02T07:02:45;3.78;;;1.90;;
58553;SDS011;48119;53.218;6.576;2024-03-02T07:05:11;3.10;;;1.60;;
58553;SDS011;48119;53.218;6.576;2024-03-02T07:07:37;5.13;;;1.52;;
58553;SDS011;48119;53.218;6.576;2024-03-02T07:10:04;2.13;;;1.40;;
58553;SDS011;48119;53.218;6.576;2024-03-02T07:12:30;3.25;;;1.85;;
58553;SDS011;48119;53.218;6.576;2024-03-02T07:14:57;4.18;;;1.80;;
58553;SDS011;48119;53.218;6.576;2024-03-02T07:17:29;4.65;;;1.80;;
58553;SDS011;48119;53.218;6.576;2024-03-02T07:19:55;3.47;;;1.55;;
58553;SDS011;48119;53.218;6.576;2024-03-02T07:22:21;2.20;;;1.30;;
58553;SDS011;48119;53.218;6.576;2024-03-02T07:24:48;1.77;;;1.30;;
58553;SDS011;48119;53.218;6.576;2024-03-02T07:27:14;2.42;;;1.60;;
58553;SDS011;48119;53.218;6.576;2024-03-02T07:29:40;2.25;;;1.70;;
58553;SDS011;48119;53.218;6.576;2024-03-02T07:32:07;3.08;;;2.08;;
58553;SDS011;48119;53.218;6.576;2024-03-02T07:34:33;3.28;;;1.75;;
58553;SDS011;48119;53.218;6.576;2024-03-02T07:36:59;3.92;;;2.25;;
58553;SDS011;48119;53.218;6.576;2024-03-02T07:39:25;4.18;;;1.90;;
58553;SDS011;48119;53.218;6.576;2024-03-02T07:41:51;4.07;;;2.00;;
58553;SDS011;48119;53.218;6.576;2024-03-02T07:44:17;2.85;;;1.67;;
58553;SDS011;48119;53.218;6.576;2024-03-02T07:46:47;3.17;;;2.10;;
58553;SDS011;48119;53.218;6.576;2024-03-02T07:49:16;2.65;;;1.60;;
58553;SDS011;48119;53.218;6.576;2024-03-02T07:51:42;4.88;;;2.17;;
58553;SDS011;48119;53.218;6.576;2024-03-02T07:54:08;3.03;;;1.65;;
58553;SDS011;48119;53.218;6.576;2024-03-02T07:56:34;3.55;;;2.20;;
58553;SDS011;48119;53.218;6.576;2024-03-02T07:59:01;3.95;;;2.25;;
58553;SDS011;48119;53.218;6.576;2024-03-02T08:01:28;4.57;;;2.10;;
58553;SDS011;48119;53.218;6.576;2024-03-02T08:04:01;2.40;;;1.55;;
58553;SDS011;48119;53.218;6.576;2024-03-02T08:06:29;4.15;;;1.70;;
58553;SDS011;48119;53.218;6.576;2024-03-02T08:08:58;3.00;;;1.63;;
58553;SDS011;48119;53.218;6.576;2024-03-02T08:11:25;6.30;;;2.20;;
58553;SDS011;48119;53.218;6.576;2024-03-02T08:13:52;3.00;;;1.52;;
58553;SDS011;48119;53.218;6.576;2024-03-02T08:16:20;2.35;;;1.70;;
58553;SDS011;48119;53.218;6.576;2024-03-02T08:18:50;3.60;;;1.85;;
58553;SDS011;48119;53.218;6.576;2024-03-02T08:21:19;2.03;;;1.30;;
58553;SDS011;48119;53.218;6.576;2024-03-02T08:23:45;3.13;;;1.70;;
58553;SDS011;48119;53.218;6.576;2024-03-02T08:26:11;3.63;;;1.73;;
58553;SDS011;48119;53.218;6.576;2024-03-02T08:28:37;2.83;;;1.40;;
58553;SDS011;48119;53.218;6.576;2024-03-02T08:31:06;1.73;;;1.50;;
58553;SDS011;48119;53.218;6.576;2024-03-02T08:33:32;2.30;;;1.38;;
58553;SDS011;48119;53.218;6.576;2024-03-02T08:35:58;3.03;;;1.35;;
58553;SDS011;48119;53.218;6.576;2024-03-02T08:38:24;1.85;;;1.17;;
58553;SDS011;48119;53.218;6.576;2024-03-02T08:40:51;1.83;;;1.30;;
58553;SDS011;48119;53.218;6.576;2024-03-02T08:43:17;1.92;;;1.10;;
58553;SDS011;48119;53.218;6.576;2024-03-02T08:45:42;1.35;;;0.98;;
58553;SDS011;48119;53.218;6.576;2024-03-02T08:48:09;1.73;;;0.93;;
58553;SDS011;48119;53.218;6.576;2024-03-02T08:50:35;2.67;;;1.13;;
58553;SDS011;48119;53.218;6.576;2024-03-02T08:53:01;2.40;;;1.20;;
58553;SDS011;48119;53.218;6.576;2024-03-02T08:55:28;2.05;;;1.30;;
58553;SDS011;48119;53.218;6.576;2024-03-02T08:57:54;3.35;;;1.20;;
58553;SDS011;48119;53.218;6.576;2024-03-02T09:00:20;2.95;;;1.30;;
58553;SDS011;48119;53.218;6.576;2024-03-02T09:02:46;2.03;;;0.93;;
58553;SDS011;48119;53.218;6.576;2024-03-02T09:05:12;2.78;;;0.80;;
58553;SDS011;48119;53.218;6.576;2024-03-02T09:07:38;1.92;;;1.10;;
58553;SDS011;48119;53.218;6.576;2024-03-02T09:10:05;2.35;;;1.00;;
58553;SDS011;48119;53.218;6.576;2024-03-02T09:12:31;4.03;;;1.30;;
58553;SDS011;48119;53.218;6.576;2024-03-02T09:15:02;1.45;;;0.90;;
58553;SDS011;48119;53.218;6.576;2024-03-02T09:17:29;1.85;;;0.93;;
58553;SDS011;48119;53.218;6.576;2024-03-02T09:19:55;1.48;;;1.00;;
58553;SDS011;48119;53.218;6.576;2024-03-02T09:22:21;1.35;;;1.08;;
58553;SDS011;48119;53.218;6.576;2024-03-02T09:24:47;1.75;;;0.93;;
58553;SDS011;48119;53.218;6.576;2024-03-02T09:27:13;2.40;;;1.08;;
58553;SDS011;48119;53.218;6.576;2024-03-02T09:29:38;2.50;;;0.93;;
58553;SDS011;48119;53.218;6.576;2024-03-02T09:32:08;1.92;;;0.90;;
58553;SDS011;48119;53.218;6.576;2024-03-02T09:34:37;1.55;;;0.70;;
58553;SDS011;48119;53.218;6.576;2024-03-02T09:37:03;1.88;;;0.90;;
58553;SDS011;48119;53.218;6.576;2024-03-02T09:39:29;2.50;;;0.90;;
58553;SDS011;48119;53.218;6.576;2024-03-02T09:41:55;2.53;;;0.95;;
58553;SDS011;48119;53.218;6.576;2024-03-02T09:44:22;1.35;;;0.70;;
58553;SDS011;48119;53.218;6.576;2024-03-02T09:46:50;3.42;;;0.90;;
58553;SDS011;48119;53.218;6.576;2024-03-02T09:49:16;2.60;;;0.98;;
58553;SDS011;48119;53.218;6.576;2024-03-02T09:51:48;1.85;;;0.70;;
58553;SDS011;48119;53.218;6.576;2024-03-02T09:54:15;1.48;;;0.90;;
58553;SDS011;48119;53.218;6.576;2024-03-02T09:56:41;2.58;;;0.50;;
58553;SDS011;48119;53.218;6.576;2024-03-02T09:59:07;3.05;;;0.90;;
58553;SDS011;48119;53.218;6.576;2024-03-02T10:01:33;1.83;;;0.90;;
58553;SDS011;48119;53.218;6.576;2024-03-02T10:03:59;1.75;;;0.68;;
58553;SDS011;48119;53.218;6.576;2024-03-02T10:06:26;1.15;;;0.60;;
58553;SDS011;48119;53.218;6.576;2024-03-02T10:08:53;4.18;;;1.23;;
58553;SDS011;48119;53.218;6.576;2024-03-02T10:11:29;1.38;;;0.70;;
58553;SDS011;48119;53.218;6.576;2024-03-02T10:14:04;2.45;;;1.00;;
58553;SDS011;48119;53.218;6.576;2024-03-02T10:16:38;3.03;;;1.00;;
58553;SDS011;48119;53.218;6.576;2024-03-02T10:21:51;1.08;;;0.77;;
58553;SDS011;48119;53.218;6.576;2024-03-02T10:24:19;1.38;;;0.80;;
58553;SDS011;48119;53.218;6.576;2024-03-02T10:26:47;1.30;;;0.60;;
58553;SDS011;48119;53.218;6.576;2024-03-02T10:29:13;1.70;;;0.73;;
58553;SDS011;48119;53.218;6.576;2024-03-02T10:31:40;2.17;;;0.82;;
58553;SDS011;48119;53.218;6.576;2024-03-02T10:34:07;2.38;;;0.80;;
58553;SDS011;48119;53.218;6.576;2024-03-02T10:36:34;8.02;;;2.25;;
58553;SDS011;48119;53.218;6.576;2024-03-02T10:39:04;8.98;;;3.10;;
58553;SDS011;48119;53.218;6.576;2024-03-02T10:41:32;3.85;;;1.48;;
58553;SDS011;48119;53.218;6.576;2024-03-02T10:44:05;4.75;;;1.38;;
58553;SDS011;48119;53.218;6.576;2024-03-02T10:46:33;2.33;;;0.65;;
58553;SDS011;48119;53.218;6.576;2024-03-02T10:49:00;5.75;;;0.70;;
58553;SDS011;48119;53.218;6.576;2024-03-02T10:51:29;4.57;;;0.93;;
58553;SDS011;48119;53.218;6.576;2024-03-02T10:54:00;1.40;;;0.80;;
58553;SDS011;48119;53.218;6.576;2024-03-02T10:56:30;1.48;;;0.60;;
58553;SDS011;48119;53.218;6.576;2024-03-02T10:59:03;1.95;;;0.98;;
58553;SDS011;48119;53.218;6.576;2024-03-02T11:01:35;2.42;;;1.00;;
58553;SDS011;48119;53.218;6.576;2024-03-02T11:04:04;0.80;;;0.57;;
58553;SDS011;48119;53.218;6.576;2024-03-02T11:06:34;2.38;;;0.60;;
58553;SDS011;48119;53.218;6.576;2024-03-02T11:09:07;2.22;;;0.70;;
58553;SDS011;48119;53.218;6.576;2024-03-02T11:11:36;0.93;;;0.60;;
58553;SDS011;48119;53.218;6.576;2024-03-02T11:14:07;1.77;;;0.82;;
58553;SDS011;48119;53.218;6.576;2024-03-02T11:16:37;1.45;;;0.65;;
58553;SDS011;48119;53.218;6.576;2024-03-02T11:19:04;1.42;;;0.93;;
58553;SDS011;48119;53.218;6.576;2024-03-02T11:21:34;1.38;;;0.90;;
58553;SDS011;48119;53.218;6.576;2024-03-02T11:24:27;4.30;;;1.20;;
58553;SDS011;48119;53.218;6.576;2024-03-02T11:26:46;3.20;;;1.00;;
58553;SDS011;48119;53.218;6.576;2024-03-02T11:32:18;1.42;;;0.90;;
58553;SDS011;48119;53.218;6.576;2024-03-02T11:34:47;1.90;;;0.73;;
58553;SDS011;48119;53.218;6.576;2024-03-02T11:37:15;3.45;;;1.83;;
58553;SDS011;48119;53.218;6.576;2024-03-02T11:39:45;6.32;;;1.70;;
58553;SDS011;48119;53.218;6.576;2024-03-02T11:42:14;1.27;;;0.80;;
58553;SDS011;48119;53.218;6.576;2024-03-02T11:44:41;2.45;;;1.13;;
58553;SDS011;48119;53.218;6.576;2024-03-02T11:47:10;2.58;;;0.70;;
58553;SDS011;48119;53.218;6.576;2024-03-02T11:49:48;4.15;;;0.90;;
58553;SDS011;48119;53.218;6.576;2024-03-02T11:52:16;1.80;;;0.80;;
58553;SDS011;48119;53.218;6.576;2024-03-02T11:54:46;1.40;;;0.77;;
58553;SDS011;48119;53.218;6.576;2024-03-02T11:57:16;2.08;;;0.73;;
58553;SDS011;48119;53.218;6.576;2024-03-02T11:59:44;2.15;;;0.88;;
58553;SDS011;48119;53.218;6.576;2024-03-02T12:02:14;0.93;;;0.68;;
58553;SDS011;48119;53.218;6.576;2024-03-02T12:04:42;1.75;;;0.85;;
58553;SDS011;48119;53.218;6.576;2024-03-02T12:07:08;2.63;;;0.90;;
58553;SDS011;48119;53.218;6.576;2024-03-02T12:09:35;1.42;;;0.90;;
58553;SDS011;48119;53.218;6.576;2024-03-02T12:12:01;3.95;;;1.98;;
58553;SDS011;48119;53.218;6.576;2024-03-02T12:14:31;2.47;;;1.15;;
58553;SDS011;48119;53.218;6.576;2024-03-02T12:16:58;3.70;;;1.02;;
58553;SDS011;48119;53.218;6.576;2024-03-02T12:19:27;2.08;;;0.80;;
58553;SDS011;48119;53.218;6.576;2024-03-02T12:21:55;1.98;;;1.00;;
58553;SDS011;48119;53.218;6.576;2024-03-02T12:24:22;3.25;;;0.63;;
58553;SDS011;48119;53.218;6.576;2024-03-02T12:26:50;2.22;;;0.60;;
58553;SDS011;48119;53.218;6.576;2024-03-02T12:29:22;1.05;;;0.60;;
58553;SDS011;48119;53.218;6.576;2024-03-02T12:31:49;1.52;;;0.70;;
58553;SDS011;48119;53.218;6.576;2024-03-02T12:34:17;1.63;;;1.00;;
58553;SDS011;48119;53.218;6.576;2024-03-02T12:36:44;1.75;;;0.90;;
58553;SDS011;48119;53.218;6.576;2024-03-02T12:39:17;2.88;;;0.95;;
58553;SDS011;48119;53.218;6.576;2024-03-02T12:41:48;2.03;;;1.10;;
58553;SDS011;48119;53.218;6.576;2024-03-02T12:44:15;4.55;;;1.00;;
58553;SDS011;48119;53.218;6.576;2024-03-02T12:46:43;1.73;;;1.00;;
58553;SDS011;48119;53.218;6.576;2024-03-02T12:49:10;2.75;;;1.40;;
58553;SDS011;48119;53.218;6.576;2024-03-02T12:51:40;2.92;;;1.15;;
58553;SDS011;48119;53.218;6.576;2024-03-02T12:54:06;3.80;;;1.40;;
58553;SDS011;48119;53.218;6.576;2024-03-02T12:56:40;5.70;;;1.35;;
58553;SDS011;48119;53.218;6.576;2024-03-02T12:59:10;3.40;;;1.25;;
58553;SDS011;48119;53.218;6.576;2024-03-02T13:01:54;3.08;;;1.50;;
58553;SDS011;48119;53.218;6.576;2024-03-02T13:06:51;3.40;;;1.52;;
58553;SDS011;48119;53.218;6.576;2024-03-02T13:09:17;2.72;;;0.93;;
58553;SDS011;48119;53.218;6.576;2024-03-02T13:11:44;1.55;;;1.10;;
58553;SDS011;48119;53.218;6.576;2024-03-02T13:14:13;2.38;;;1.30;;
58553;SDS011;48119;53.218;6.576;2024-03-02T13:16:39;4.25;;;1.40;;
58553;SDS011;48119;53.218;6.576;2024-03-02T13:19:08;4.00;;;1.80;;
58553;SDS011;48119;53.218;6.576;2024-03-02T13:21:34;3.25;;;1.50;;
58553;SDS011;48119;53.218;6.576;2024-03-02T13:24:00;3.95;;;1.75;;
58553;SDS011;48119;53.218;6.576;2024-03-02T13:26:26;4.13;;;1.50;;
58553;SDS011;48119;53.218;6.576;2024-03-02T13:28:52;3.60;;;2.00;;
58553;SDS011;48119;53.218;6.576;2024-03-02T13:31:18;4.63;;;2.13;;
58553;SDS011;48119;53.218;6.576;2024-03-02T13:33:44;3.85;;;2.75;;
58553;SDS011;48119;53.218;6.576;2024-03-02T13:36:11;7.32;;;2.70;;
58553;SDS011;48119;53.218;6.576;2024-03-02T13:38:38;7.95;;;3.33;;
58553;SDS011;48119;53.218;6.576;2024-03-02T13:41:03;3.47;;;2.58;;
58553;SDS011;48119;53.218;6.576;2024-03-02T13:43:29;4.47;;;3.03;;
58553;SDS011;48119;53.218;6.576;2024-03-02T13:45:57;6.15;;;2.60;;
58553;SDS011;48119;53.218;6.576;2024-03-02T13:48:24;3.83;;;2.63;;
58553;SDS011;48119;53.218;6.576;2024-03-02T13:50:53;4.65;;;2.83;;
58553;SDS011;48119;53.218;6.576;2024-03-02T13:53:19;3.05;;;2.35;;
58553;SDS011;48119;53.218;6.576;2024-03-02T13:55:45;3.08;;;2.65;;
58553;SDS011;48119;53.218;6.576;2024-03-02T13:58:11;4.65;;;2.75;;
58553;SDS011;48119;53.218;6.576;2024-03-02T14:00:37;4.45;;;2.60;;
58553;SDS011;48119;53.218;6.576;2024-03-02T14:03:06;5.18;;;2.88;;
58553;SDS011;48119;53.218;6.576;2024-03-02T14:05:32;5.30;;;2.30;;
58553;SDS011;48119;53.218;6.576;2024-03-02T14:07:58;4.10;;;2.47;;
58553;SDS011;48119;53.218;6.576;2024-03-02T14:10:25;3.28;;;2.38;;
58553;SDS011;48119;53.218;6.576;2024-03-02T14:12:52;4.75;;;2.40;;
58553;SDS011;48119;53.218;6.576;2024-03-02T14:15:18;4.70;;;2.85;;
58553;SDS011;48119;53.218;6.576;2024-03-02T14:17:44;4.78;;;2.50;;
58553;SDS011;48119;53.218;6.576;2024-03-02T14:20:09;4.88;;;2.45;;
58553;SDS011;48119;53.218;6.576;2024-03-02T14:22:37;3.92;;;2.10;;
58553;SDS011;48119;53.218;6.576;2024-03-02T14:25:03;4.30;;;1.60;;
58553;SDS011;48119;53.218;6.576;2024-03-02T14:27:29;3.80;;;1.85;;
58553;SDS011;48119;53.218;6.576;2024-03-02T14:29:55;5.75;;;1.70;;
58553;SDS011;48119;53.218;6.576;2024-03-02T14:32:21;2.88;;;1.77;;
58553;SDS011;48119;53.218;6.576;2024-03-02T14:34:47;3.80;;;1.50;;
58553;SDS011;48119;53.218;6.576;2024-03-02T14:37:16;3.22;;;1.52;;
58553;SDS011;48119;53.218;6.576;2024-03-02T14:39:42;5.20;;;2.58;;
58553;SDS011;48119;53.218;6.576;2024-03-02T14:42:08;4.88;;;1.50;;
58553;SDS011;48119;53.218;6.576;2024-03-02T14:44:34;2.85;;;1.48;;
58553;SDS011;48119;53.218;6.576;2024-03-02T14:47:01;3.67;;;1.80;;
58553;SDS011;48119;53.218;6.576;2024-03-02T14:49:29;3.35;;;1.70;;
58553;SDS011;48119;53.218;6.576;2024-03-02T14:51:55;2.72;;;1.60;;
58553;SDS011;48119;53.218;6.576;2024-03-02T14:54:21;2.63;;;1.50;;
58553;SDS011;48119;53.218;6.576;2024-03-02T14:56:47;3.35;;;1.80;;
58553;SDS011;48119;53.218;6.576;2024-03-02T14:59:13;2.72;;;1.83;;